Time;durP1;ratioP1;P1;durP2;ratioP2;P2;SDS_P1;SDS_P2;PMS_P1;PMS_P2;Temp;Humidity;BMP_temperature;BMP_pressure;BME280_temperature;BME280_humidity;BME280_pressure;Samples;Min_cycle;Max_cycle;Signal;HPM_P1;HPM_P2
2021/03/24 00:01:18;;;;;;;66.13;45.20;;;3.90;99.90;;;;;;5052498;28;21018;-83
2021/03/24 00:03:47;;;;;;;66.50;46.27;;;3.90;99.90;;;;;;5050804;28;20557;-83
2021/03/24 00:06:15;;;;;;;76.40;48.37;;;3.80;99.90;;;;;;5052545;28;20538;-83
2021/03/24 00:08:41;;;;;;;75.80;51.33;;;3.60;99.90;;;;;;5052352;28;20497;-84
2021/03/24 00:11:09;;;;;;;70.77;52.43;;;3.60;99.90;;;;;;5052279;28;20483;-83
2021/03/24 00:13:36;;;;;;;78.17;62.27;;;3.50;99.90;;;;;;5052334;28;20487;-83
2021/03/24 00:16:04;;;;;;;66.17;59.17;;;3.50;99.90;;;;;;5052053;28;20447;-83
2021/03/24 00:18:32;;;;;;;95.47;79.30;;;3.40;99.90;;;;;;5051172;28;20913;-83
2021/03/24 00:21:01;;;;;;;105.40;95.20;;;3.50;99.90;;;;;;5052201;28;21004;-83
2021/03/24 00:23:27;;;;;;;105.83;95.30;;;3.50;99.90;;;;;;5054248;28;20532;-84
2021/03/24 00:25:54;;;;;;;112.30;102.37;;;3.30;99.90;;;;;;5056067;28;20494;-83
2021/03/24 00:28:21;;;;;;;109.50;99.47;;;3.30;99.90;;;;;;5056158;28;20509;-84
2021/03/24 00:30:49;;;;;;;113.60;104.30;;;3.20;99.90;;;;;;5055948;28;20458;-83
2021/03/24 00:33:19;;;;;;;124.40;114.30;;;3.10;99.90;;;;;;5054723;28;20871;-83
2021/03/24 00:35:45;;;;;;;117.17;106.47;;;3.00;99.90;;;;;;5054907;28;20451;-82
2021/03/24 00:38:14;;;;;;;125.73;114.70;;;2.90;99.90;;;;;;5055947;28;20470;-84
2021/03/24 00:40:45;;;;;;;135.47;124.27;;;2.80;99.90;;;;;;5055484;28;20942;-83
2021/03/24 00:43:14;;;;;;;147.87;135.03;;;2.70;99.90;;;;;;5055617;28;20483;-83
2021/03/24 00:45:41;;;;;;;155.77;143.00;;;2.70;99.90;;;;;;5055519;28;20949;-83
2021/03/24 00:48:14;;;;;;;145.00;132.73;;;2.70;99.90;;;;;;5054878;28;20501;-83
2021/03/24 00:50:41;;;;;;;165.67;152.27;;;2.40;99.90;;;;;;5055269;28;20538;-83
2021/03/24 00:53:07;;;;;;;187.97;174.27;;;2.40;99.90;;;;;;5055562;28;20805;-83
2021/03/24 00:55:34;;;;;;;193.97;179.87;;;2.40;99.90;;;;;;5055313;28;20452;-83
2021/03/24 00:58:01;;;;;;;200.27;185.80;;;2.40;99.90;;;;;;5055278;28;20502;-83
2021/03/24 01:00:30;;;;;;;205.43;191.10;;;2.30;99.90;;;;;;5055403;28;20455;-84
2021/03/24 01:02:56;;;;;;;204.23;189.20;;;2.20;99.90;;;;;;5053888;28;20537;-84
2021/03/24 01:05:24;;;;;;;211.43;196.63;;;2.30;99.90;;;;;;5055344;28;20459;-83
2021/03/24 01:07:52;;;;;;;203.60;189.40;;;2.20;99.90;;;;;;5055342;28;20451;-83
2021/03/24 01:10:21;;;;;;;220.60;205.67;;;2.00;99.90;;;;;;5055254;28;20509;-83
2021/03/24 01:12:49;;;;;;;219.23;204.07;;;2.20;99.90;;;;;;5054842;28;20448;-83
2021/03/24 01:15:16;;;;;;;236.53;220.93;;;2.20;99.90;;;;;;5055166;28;20456;-84
2021/03/24 01:17:43;;;;;;;242.23;226.00;;;2.30;99.90;;;;;;5054070;28;20452;-83
2021/03/24 01:20:13;;;;;;;248.87;231.97;;;2.20;99.90;;;;;;5055099;28;20456;-83
2021/03/24 01:22:40;;;;;;;240.43;225.23;;;2.30;99.90;;;;;;5054622;28;20463;-83
2021/03/24 01:25:08;;;;;;;247.10;230.90;;;2.30;99.90;;;;;;5054904;28;20455;-84
2021/03/24 01:27:34;;;;;;;231.77;216.63;;;2.20;99.90;;;;;;5054730;28;20459;-83
2021/03/24 01:30:04;;;;;;;233.10;218.30;;;2.10;99.90;;;;;;5054756;28;20822;-82
2021/03/24 01:32:32;;;;;;;243.53;228.10;;;2.10;99.90;;;;;;5053367;28;20993;-82
2021/03/24 01:35:00;;;;;;;249.67;233.13;;;2.00;99.90;;;;;;5054098;28;20456;-82
2021/03/24 01:37:27;;;;;;;266.43;248.60;;;2.00;99.90;;;;;;5054814;28;20509;-83
2021/03/24 01:39:53;;;;;;;287.27;268.37;;;2.00;99.90;;;;;;5054451;28;20545;-83
2021/03/24 01:42:20;;;;;;;268.17;251.60;;;2.20;99.90;;;;;;5054135;28;20456;-83
2021/03/24 01:45:30;;;;;;;264.27;247.57;;;2.10;99.90;;;;;;5054812;28;20509;-83
2021/03/24 01:48:00;;;;;;;256.57;239.10;;;2.10;99.90;;;;;;5053421;28;20463;-82
2021/03/24 01:50:30;;;;;;;256.87;240.00;;;2.00;99.90;;;;;;5054267;28;20474;-83
2021/03/24 01:52:57;;;;;;;251.20;235.90;;;1.90;99.90;;;;;;5054098;28;20811;-82
2021/03/24 01:55:25;;;;;;;240.10;224.43;;;2.00;99.90;;;;;;5054329;28;20454;-82
2021/03/24 01:57:51;;;;;;;259.50;243.60;;;1.90;99.90;;;;;;5054419;28;20880;-83
2021/03/24 02:00:26;;;;;;;262.17;244.17;;;1.80;99.90;;;;;;5054246;28;20832;-83
2021/03/24 02:02:52;;;;;;;277.40;258.80;;;1.70;99.90;;;;;;5052429;28;20903;-83
2021/03/24 02:05:19;;;;;;;272.63;255.23;;;1.80;99.90;;;;;;5053868;28;20456;-82
2021/03/24 02:07:51;;;;;;;278.97;261.23;;;1.80;99.90;;;;;;5056162;28;20502;-82
2021/03/24 02:10:25;;;;;;;270.57;254.00;;;1.70;99.90;;;;;;5053829;28;20471;-83
2021/03/24 02:12:56;;;;;;;277.97;259.87;;;1.70;99.90;;;;;;5054101;28;20798;-83
2021/03/24 02:15:29;;;;;;;278.60;261.03;;;1.70;99.90;;;;;;5053624;28;20452;-83
2021/03/24 02:17:58;;;;;;;287.73;269.93;;;1.80;99.90;;;;;;5053195;28;20452;-83
2021/03/24 02:20:31;;;;;;;292.10;274.00;;;1.80;99.90;;;;;;5053658;28;20451;-83
2021/03/24 02:23:03;;;;;;;286.53;268.77;;;1.80;99.90;;;;;;5053852;28;20566;-83
2021/03/24 02:25:33;;;;;;;273.85;257.08;;;1.80;99.90;;;;;;5053419;28;20509;-82
2021/03/24 02:28:05;;;;;;;264.20;247.97;;;1.60;99.90;;;;;;5053629;28;20639;-83
2021/03/24 02:30:34;;;;;;;260.83;242.87;;;1.50;99.90;;;;;;5053402;28;20538;-83
2021/03/24 02:33:04;;;;;;;253.07;236.30;;;1.50;99.90;;;;;;5052546;28;20455;-82
2021/03/24 02:35:35;;;;;;;248.33;233.37;;;1.30;99.90;;;;;;5053617;28;20501;-83
2021/03/24 02:38:06;;;;;;;258.67;241.33;;;1.10;99.90;;;;;;5053664;28;20799;-83
2021/03/24 02:40:34;;;;;;;256.97;240.87;;;1.20;99.90;;;;;;5053408;28;20831;-83
2021/03/24 02:43:03;;;;;;;272.80;255.93;;;0.90;99.90;;;;;;5053313;28;20525;-83
2021/03/24 02:45:32;;;;;;;282.70;264.80;;;0.90;99.90;;;;;;5052935;28;20811;-83
2021/03/24 02:48:01;;;;;;;297.57;279.90;;;0.90;99.90;;;;;;5051948;28;20465;-83
2021/03/24 02:50:29;;;;;;;291.00;273.53;;;1.00;99.90;;;;;;5053186;28;20562;-82
2021/03/24 02:52:57;;;;;;;309.20;290.20;;;1.10;99.90;;;;;;5052926;28;20460;-83
2021/03/24 02:55:25;;;;;;;319.07;299.90;;;1.10;99.90;;;;;;5053149;28;20451;-83
2021/03/24 02:57:51;;;;;;;319.13;299.00;;;1.10;99.90;;;;;;5053039;28;20548;-83
2021/03/24 03:00:22;;;;;;;346.33;325.93;;;1.20;99.90;;;;;;5053214;28;20542;-83
2021/03/24 03:02:52;;;;;;;345.10;322.60;;;1.30;99.90;;;;;;5051514;28;21032;-82
2021/03/24 03:05:22;;;;;;;357.07;335.27;;;1.40;99.90;;;;;;5052921;28;20982;-82
2021/03/24 03:07:52;;;;;;;368.50;346.60;;;1.40;99.90;;;;;;5053026;28;20446;-83
2021/03/24 03:10:23;;;;;;;348.97;328.37;;;1.40;99.90;;;;;;5052708;28;20954;-83
2021/03/24 03:12:56;;;;;;;338.83;318.27;;;1.40;99.90;;;;;;5052676;28;20462;-83
2021/03/24 03:15:28;;;;;;;333.67;313.83;;;1.30;99.90;;;;;;5052824;28;20954;-82
2021/03/24 03:17:59;;;;;;;317.03;297.17;;;1.20;99.90;;;;;;5051496;28;20567;-81
2021/03/24 03:20:29;;;;;;;308.63;290.20;;;1.10;99.90;;;;;;5052772;28;20458;-83
2021/03/24 03:23:00;;;;;;;334.17;315.30;;;1.10;99.90;;;;;;5052586;28;20839;-83
2021/03/24 03:25:30;;;;;;;322.77;303.92;;;1.00;99.90;;;;;;5052904;28;20538;-82
2021/03/24 03:27:59;;;;;;;335.20;315.00;;;1.00;99.90;;;;;;5052806;28;20201;-83
2021/03/24 03:30:30;;;;;;;334.97;314.87;;;1.10;99.90;;;;;;5052653;28;20222;-82
2021/03/24 03:33:00;;;;;;;352.90;332.73;;;1.10;99.90;;;;;;5051410;28;20456;-82
2021/03/24 03:35:29;;;;;;;350.03;328.90;;;1.10;99.90;;;;;;5052786;28;20457;-83
2021/03/24 03:37:59;;;;;;;337.15;317.48;;;1.10;99.90;;;;;;5052393;28;20459;-83
2021/03/24 03:40:28;;;;;;;346.43;327.07;;;1.00;99.90;;;;;;5052707;28;20197;-82
2021/03/24 03:42:56;;;;;;;332.40;313.67;;;0.90;99.90;;;;;;5052328;28;20977;-82
2021/03/24 03:45:23;;;;;;;338.77;320.07;;;0.90;99.90;;;;;;5052481;28;20546;-82
2021/03/24 03:47:51;;;;;;;335.80;317.27;;;0.90;99.90;;;;;;5050850;28;20452;-79
2021/03/24 03:50:21;;;;;;;315.17;297.77;;;0.80;99.90;;;;;;5051788;28;20225;-82
2021/03/24 03:53:01;;;;;;;308.55;291.63;;;0.80;99.90;;;;;;5052587;28;20454;-83
2021/03/24 03:55:36;;;;;;;320.93;302.73;;;0.80;99.90;;;;;;5042206;28;20196;-82
2021/03/24 03:58:07;;;;;;;342.83;322.93;;;0.60;99.90;;;;;;5054306;28;20459;-82
2021/03/24 04:00:38;;;;;;;333.83;312.17;;;0.60;99.90;;;;;;5056354;28;20456;-82
2021/03/24 04:03:10;;;;;;;349.53;329.23;;;0.50;99.90;;;;;;5055137;28;20974;-81
2021/03/24 04:05:40;;;;;;;335.33;315.87;;;0.60;99.90;;;;;;5056476;28;20494;-82
2021/03/24 04:08:11;;;;;;;350.48;329.90;;;0.60;99.90;;;;;;5056343;28;20535;-79
2021/03/24 04:10:41;;;;;;;362.48;342.10;;;0.50;99.90;;;;;;5055363;28;20204;-83
2021/03/24 04:13:09;;;;;;;374.93;353.27;;;0.60;99.90;;;;;;5038404;28;20276;-81
2021/03/24 04:15:37;;;;;;;363.87;343.07;;;0.60;99.90;;;;;;5055402;28;20455;-82
2021/03/24 04:18:10;;;;;;;373.03;350.13;;;0.60;99.90;;;;;;5054693;28;20538;-85
2021/03/24 04:20:39;;;;;;;367.00;345.70;;;0.50;99.90;;;;;;5036368;28;20452;-81
2021/03/24 04:23:14;;;;;;;349.42;329.60;;;0.50;99.90;;;;;;5055394;28;20478;-82
2021/03/24 04:25:44;;;;;;;352.87;330.27;;;0.40;99.90;;;;;;5056054;28;20204;-82
2021/03/24 04:28:14;;;;;;;349.93;330.67;;;0.40;99.90;;;;;;5055556;28;20819;-82
2021/03/24 04:30:45;;;;;;;370.75;349.13;;;0.40;99.90;;;;;;5055686;28;20978;-82
2021/03/24 04:33:13;;;;;;;361.80;341.08;;;0.40;99.90;;;;;;5054354;28;20181;-82
2021/03/24 04:35:41;;;;;;;382.27;360.67;;;0.40;99.90;;;;;;5055963;28;20367;-82
2021/03/24 04:38:21;;;;;;;377.07;356.40;;;0.50;99.90;;;;;;5055574;28;20510;-83
2021/03/24 04:40:51;;;;;;;382.60;361.20;;;0.40;99.90;;;;;;5055641;28;21154;-83
2021/03/24 04:43:21;;;;;;;388.93;367.03;;;0.50;99.90;;;;;;5040499;28;20501;-83
2021/03/24 04:45:52;;;;;;;374.00;352.33;;;0.40;99.90;;;;;;5055387;28;20548;-82
2021/03/24 04:48:21;;;;;;;375.20;354.60;;;0.50;99.90;;;;;;5054418;28;20513;-81
2021/03/24 04:50:54;;;;;;;378.13;356.47;;;0.60;99.90;;;;;;5036660;28;20218;-82
2021/03/24 04:53:22;;;;;;;385.83;364.25;;;0.50;99.90;;;;;;5055191;28;20538;-82
2021/03/24 04:55:51;;;;;;;379.77;358.73;;;0.60;99.90;;;;;;5055445;28;20193;-81
2021/03/24 04:58:29;;;;;;;385.30;363.75;;;0.50;99.90;;;;;;5055360;28;20513;-82
2021/03/24 05:01:01;;;;;;;378.17;356.37;;;0.40;99.90;;;;;;5055072;28;20272;-82
2021/03/24 05:03:35;;;;;;;384.30;362.10;;;0.50;99.90;;;;;;5053130;28;20478;-83
2021/03/24 05:06:06;;;;;;;399.03;375.77;;;0.50;99.90;;;;;;5054975;28;20451;-82
2021/03/24 05:08:38;;;;;;;374.58;352.38;;;0.50;99.90;;;;;;5054666;28;20546;-82
2021/03/24 05:11:10;;;;;;;374.40;351.88;;;0.50;99.90;;;;;;5054843;28;20201;-82
2021/03/24 05:13:41;;;;;;;361.73;341.13;;;0.50;99.90;;;;;;5054805;28;20195;-84
2021/03/24 05:16:17;;;;;;;364.83;344.25;;;0.50;99.90;;;;;;5036627;28;20456;-85
2021/03/24 05:18:52;;;;;;;407.70;381.30;;;0.50;99.90;;;;;;5054141;28;20189;-80
2021/03/24 05:21:27;;;;;;;370.10;349.33;;;0.60;99.90;;;;;;5054726;28;20542;-82
2021/03/24 05:23:57;;;;;;;372.63;353.30;;;0.40;99.90;;;;;;5054775;28;21041;-83
2021/03/24 05:26:28;;;;;;;396.17;374.20;;;0.40;99.90;;;;;;5054807;28;20220;-85
2021/03/24 05:28:57;;;;;;;382.13;361.13;;;0.40;99.90;;;;;;5054891;28;20189;-84
2021/03/24 05:31:29;;;;;;;372.77;351.77;;;0.50;99.90;;;;;;5054702;28;20946;-82
2021/03/24 05:34:02;;;;;;;387.53;365.33;;;0.60;99.90;;;;;;5052681;28;20447;-82
2021/03/24 05:36:34;;;;;;;382.42;359.40;;;0.50;99.90;;;;;;5054117;28;20455;-82
2021/03/24 05:39:12;;;;;;;390.43;368.00;;;0.70;99.90;;;;;;5040921;28;20185;-83
2021/03/24 05:41:44;;;;;;;382.43;361.07;;;0.70;99.90;;;;;;5053352;28;20839;-80
2021/03/24 05:44:39;;;;;;;389.63;366.47;;;0.70;99.90;;;;;;5054149;28;21067;-82
2021/03/24 05:47:28;;;;;;;384.07;362.10;;;0.80;99.90;;;;;;5053679;28;20452;-82
2021/03/24 05:50:05;;;;;;;386.33;364.23;;;0.80;99.90;;;;;;5034451;28;20504;-81
2021/03/24 05:52:46;;;;;;;394.30;370.57;;;0.90;99.90;;;;;;5036520;28;20547;-82
2021/03/24 05:55:25;;;;;;;379.93;357.90;;;0.80;99.90;;;;;;5054515;28;20447;-82
2021/03/24 05:58:06;;;;;;;380.90;359.03;;;1.00;99.90;;;;;;5054068;28;20456;-83
2021/03/24 06:00:42;;;;;;;372.37;351.27;;;1.00;99.90;;;;;;5054194;28;21091;-82
2021/03/24 06:03:16;;;;;;;360.63;340.03;;;1.10;99.90;;;;;;5052652;28;20491;-82
2021/03/24 06:06:10;;;;;;;383.30;360.17;;;1.20;99.90;;;;;;5054212;28;20526;-82
2021/03/24 06:09:11;;;;;;;373.30;351.73;;;1.30;99.90;;;;;;5020655;28;20456;-82
2021/03/24 06:12:06;;;;;;;364.27;342.73;;;1.30;99.90;;;;;;5044519;28;20451;-82
2021/03/24 06:14:50;;;;;;;356.33;335.40;;;1.20;99.90;;;;;;5053935;28;20459;-83
2021/03/24 06:17:51;;;;;;;360.37;340.57;;;1.30;99.90;;;;;;5052327;28;20867;-82
2021/03/24 06:20:30;;;;;;;343.67;323.67;;;1.20;99.90;;;;;;5049555;28;20888;-83
2021/03/24 06:23:42;;;;;;;348.50;326.30;;;1.30;99.90;;;;;;5056564;28;20479;-82
2021/03/24 06:26:24;;;;;;;347.75;327.90;;;1.30;99.90;;;;;;5026714;28;20510;-82
2021/03/24 06:29:00;;;;;;;353.53;331.93;;;1.40;99.90;;;;;;5042146;28;20195;-80
2021/03/24 06:31:49;;;;;;;339.30;319.10;;;1.50;99.90;;;;;;5053810;28;20797;-82
2021/03/24 06:34:59;;;;;;;351.07;329.87;;;1.60;99.90;;;;;;5053147;28;20239;-81
2021/03/24 06:37:49;;;;;;;341.27;320.50;;;1.70;99.90;;;;;;5052462;28;20483;-81
2021/03/24 06:40:33;;;;;;;343.83;322.63;;;1.80;99.90;;;;;;5044370;28;20455;-82
2021/03/24 06:43:41;;;;;;;352.37;330.53;;;2.00;99.90;;;;;;5053133;28;20479;-82
2021/03/24 06:46:26;;;;;;;351.93;331.27;;;2.10;99.90;;;;;;5053586;28;20458;-81
2021/03/24 06:49:09;;;;;;;341.20;321.10;;;2.30;99.90;;;;;;5057213;28;20509;-82
2021/03/24 06:52:37;;;;;;;354.70;334.13;;;2.40;99.90;;;;;;5060602;28;20476;-81
2021/03/24 06:55:58;;;;;;;341.13;320.97;;;2.50;99.90;;;;;;5033057;28;20452;-80
2021/03/24 06:59:05;;;;;;;342.10;320.57;;;2.80;99.90;;;;;;5046786;28;20452;-81
2021/03/24 07:01:49;;;;;;;338.50;318.63;;;3.00;99.90;;;;;;5051853;28;20439;-80
2021/03/24 07:05:03;;;;;;;338.37;318.00;;;3.10;99.90;;;;;;5052751;28;20588;-81
2021/03/24 07:07:58;;;;;;;330.30;308.17;;;3.20;99.90;;;;;;5052414;28;20483;-81
2021/03/24 07:10:36;;;;;;;327.10;307.23;;;3.40;99.90;;;;;;5052648;28;20470;-83
2021/03/24 07:13:28;;;;;;;296.03;278.63;;;3.40;99.90;;;;;;5052527;28;20500;-82
2021/03/24 07:16:01;;;;;;;273.53;257.23;;;3.60;99.90;;;;;;5052304;28;20534;-81
2021/03/24 07:19:15;;;;;;;263.47;247.03;;;3.70;99.90;;;;;;5031770;28;20491;-81
2021/03/24 07:22:08;;;;;;;240.53;225.03;;;3.80;99.90;;;;;;4958108;28;21040;-81
2021/03/24 07:24:58;;;;;;;224.80;209.03;;;4.00;99.90;;;;;;4971891;28;20529;-82
2021/03/24 07:27:36;;;;;;;205.60;191.37;;;4.10;99.90;;;;;;4998396;28;20513;-81
2021/03/24 07:30:14;;;;;;;168.03;156.53;;;4.20;99.90;;;;;;5052778;28;20497;-81
2021/03/24 07:32:48;;;;;;;145.33;134.37;;;4.30;99.90;;;;;;5050824;28;20447;-84
2021/03/24 07:35:34;;;;;;;120.20;110.73;;;4.50;99.90;;;;;;5052817;28;20451;-82
2021/03/24 07:38:22;;;;;;;119.63;109.83;;;4.70;99.90;;;;;;5052052;28;20456;-81
2021/03/24 07:41:26;;;;;;;103.17;93.53;;;4.80;99.90;;;;;;5052580;28;20451;-81
2021/03/24 07:44:09;;;;;;;93.87;84.53;;;4.90;99.90;;;;;;5032645;28;20602;-80
2021/03/24 07:47:16;;;;;;;83.23;75.37;;;5.10;99.90;;;;;;5034204;28;20506;-81
2021/03/24 07:50:00;;;;;;;95.70;87.20;;;5.20;99.90;;;;;;5030866;28;20478;-84
2021/03/24 07:52:41;;;;;;;83.57;75.13;;;5.30;99.90;;;;;;5052636;28;20458;-82
2021/03/24 07:55:17;;;;;;;79.43;71.10;;;5.50;99.90;;;;;;5052388;28;21020;-82
2021/03/24 07:57:52;;;;;;;73.67;65.77;;;5.60;99.90;;;;;;5052428;28;20500;-82
2021/03/24 08:00:24;;;;;;;68.57;52.60;;;5.80;99.90;;;;;;5052386;28;20462;-82
2021/03/24 08:02:59;;;;;;;71.93;53.40;;;5.90;99.90;;;;;;5050933;28;20448;-81
2021/03/24 08:06:11;;;;;;;67.63;50.93;;;6.20;99.90;;;;;;5052151;28;21025;-81
2021/03/24 08:08:57;;;;;;;58.63;44.60;;;6.30;99.90;;;;;;5040227;28;20448;-82
2021/03/24 08:11:31;;;;;;;62.67;40.10;;;6.50;99.90;;;;;;5050131;28;20487;-82
2021/03/24 08:14:11;;;;;;;63.50;36.50;;;6.60;99.90;;;;;;5050860;28;20483;-82
2021/03/24 08:16:59;;;;;;;58.10;34.23;;;6.70;99.90;;;;;;5048809;28;20512;-81
2021/03/24 08:19:52;;;;;;;58.73;38.40;;;7.00;99.90;;;;;;5050430;28;20451;-82
2021/03/24 08:22:53;;;;;;;68.93;34.63;;;7.20;99.90;;;;;;5035179;28;20456;-82
2021/03/24 08:25:36;;;;;;;50.83;29.40;;;7.50;99.90;;;;;;5032367;28;20512;-83
2021/03/24 08:28:11;;;;;;;55.30;30.53;;;7.80;98.20;;;;;;5032129;28;20964;-82
2021/03/24 08:30:53;;;;;;;60.57;31.97;;;8.00;93.00;;;;;;5032305;28;20942;-83
2021/03/24 08:33:50;;;;;;;56.53;30.50;;;8.40;82.60;;;;;;5031146;28;20444;-83
2021/03/24 08:36:44;;;;;;;49.40;30.23;;;8.60;71.40;;;;;;5028901;28;20456;-83
2021/03/24 08:39:34;;;;;;;50.30;28.03;;;9.00;64.90;;;;;;5019652;28;20453;-83
2021/03/24 08:42:35;;;;;;;54.67;27.50;;;9.40;61.10;;;;;;5032230;28;20536;-83
2021/03/24 08:45:12;;;;;;;54.23;28.53;;;9.80;52.50;;;;;;5033715;28;20515;-83
2021/03/24 08:47:42;;;;;;;55.57;27.87;;;10.10;45.30;;;;;;5034233;28;21038;-83
2021/03/24 08:50:19;;;;;;;52.00;27.20;;;10.30;44.20;;;;;;5035682;28;20513;-83
2021/03/24 08:53:01;;;;;;;47.60;27.50;;;10.60;39.60;;;;;;5035698;28;20522;-83
2021/03/24 08:55:46;;;;;;;49.93;28.60;;;10.90;37.10;;;;;;5035601;28;20499;-83
2021/03/24 08:58:36;;;;;;;;;;;;;;;;;;;;;
2021/03/24 09:01:42;;;;;;;56.90;30.30;;;11.50;30.90;;;;;;5033712;28;20842;-83
2021/03/24 09:04:48;;;;;;;49.27;27.67;;;11.70;28.20;;;;;;5034984;28;20978;-83
2021/03/24 09:07:44;;;;;;;56.27;29.27;;;12.20;28.60;;;;;;5035554;28;20952;-83
2021/03/24 09:10:35;;;;;;;55.50;27.80;;;12.20;25.10;;;;;;5035320;28;20455;-83
2021/03/24 09:13:13;;;;;;;50.37;28.73;;;12.50;22.00;;;;;;5035236;28;20894;-83
2021/03/24 09:15:53;;;;;;;54.73;30.30;;;12.60;20.50;;;;;;5035283;28;20541;-83
2021/03/24 09:18:24;;;;;;;50.60;30.20;;;12.80;20.90;;;;;;5033807;28;20458;-83
2021/03/24 09:21:09;;;;;;;44.50;28.47;;;13.00;18.40;;;;;;5034987;28;20448;-84
2021/03/24 09:24:10;;;;;;;54.30;28.37;;;13.20;18.60;;;;;;5035054;28;20894;-84
2021/03/24 09:27:22;;;;;;;53.17;30.30;;;13.50;17.40;;;;;;5034928;28;20456;-83
2021/03/24 09:30:19;;;;;;;51.00;27.50;;;13.80;16.50;;;;;;5035180;28;20464;-83
2021/03/24 09:32:59;;;;;;;59.50;28.50;;;14.00;14.80;;;;;;5024446;28;20507;-84
2021/03/24 09:35:42;;;;;;;53.70;30.77;;;14.30;15.10;;;;;;5034768;28;20455;-84
2021/03/24 09:38:31;;;;;;;54.53;30.00;;;14.50;12.60;;;;;;5034745;28;20464;-84
2021/03/24 09:41:26;;;;;;;53.53;28.97;;;14.30;10.80;;;;;;5034819;28;20452;-84
2021/03/24 09:43:57;;;;;;;57.07;29.30;;;14.70;9.60;;;;;;5034497;28;20491;-84
2021/03/24 09:46:44;;;;;;;54.70;29.50;;;14.90;6.60;;;;;;5034732;28;20547;-84
2021/03/24 09:49:27;;;;;;;;;;;;;;;;;;;;;
2021/03/24 09:52:26;;;;;;;53.70;29.30;;;15.60;5.80;;;;;;5030773;28;20444;-84
2021/03/24 09:55:20;;;;;;;68.43;29.73;;;15.70;5.40;;;;;;5034136;28;20452;-84
2021/03/24 09:58:16;;;;;;;58.13;28.57;;;15.50;1.20;;;;;;5034525;28;20456;-84
2021/03/24 10:00:57;;;;;;;59.77;30.77;;;15.60;1.40;;;;;;5034327;28;20513;-84
2021/03/24 10:03:40;;;;;;;56.60;29.23;;;16.00;1.70;;;;;;5032884;28;20531;-84
2021/03/24 10:06:18;;;;;;;59.43;28.40;;;16.10;1.00;;;;;;5034248;28;20936;-84
2021/03/24 10:09:37;;;;;;;;;;;;;;;;;;;;;
2021/03/24 10:13:02;;;;;;;;;;;;;;;;;;;;;
2021/03/24 10:16:05;;;;;;;;;;;;;;;;;;;;;
2021/03/24 10:18:46;;;;;;;61.27;26.90;;;17.30;1.00;;;;;;4987651;28;20955;-84
2021/03/24 10:21:48;;;;;;;;;;;;;;;;;;;;;
2021/03/24 10:24:21;;;;;;;51.63;23.37;;;16.40;1.00;;;;;;5033463;28;20484;-84
2021/03/24 10:26:56;;;;;;;56.80;26.23;;;17.20;1.00;;;;;;5033876;28;21034;-84
2021/03/24 10:29:40;;;;;;;56.77;24.90;;;17.40;1.00;;;;;;5033759;28;20947;-84
2021/03/24 10:32:35;;;;;;;58.17;26.77;;;17.30;1.00;;;;;;5032321;28;20464;-84
2021/03/24 10:35:45;;;;;;;;;;;;;;;;;;;;;
2021/03/24 10:38:35;;;;;;;50.90;25.33;;;17.80;1.00;;;;;;4926344;28;20456;-85
2021/03/24 10:44:28;;;;;;;68.33;26.93;;;17.50;1.00;;;;;;5026497;28;20483;-83
2021/03/24 10:47:20;;;;;;;59.37;27.60;;;17.30;1.00;;;;;;5052353;28;20463;-83
2021/03/24 10:53:26;;;;;;;57.00;26.63;;;17.20;1.00;;;;;;5008590;28;20460;-83
2021/03/24 10:56:10;;;;;;;59.27;26.93;;;18.20;1.00;;;;;;5051495;28;20483;-82
2021/03/24 10:58:48;;;;;;;51.47;26.03;;;17.90;1.00;;;;;;5051493;28;20501;-83
2021/03/24 11:01:44;;;;;;;53.93;27.17;;;18.60;1.00;;;;;;5051404;28;20462;-83
2021/03/24 11:04:46;;;;;;;60.23;25.40;;;18.60;1.00;;;;;;5050668;28;21024;-83
2021/03/24 11:07:25;;;;;;;59.77;28.03;;;17.70;1.00;;;;;;5050718;28;20524;-83
2021/03/24 11:09:58;;;;;;;58.53;28.70;;;18.40;1.00;;;;;;5051405;28;20495;-84
2021/03/24 11:12:35;;;;;;;56.10;28.07;;;18.70;1.00;;;;;;5051671;28;20813;-83
2021/03/24 11:15:15;;;;;;;62.33;29.90;;;18.10;1.00;;;;;;5052223;28;21029;-82
2021/03/24 11:17:45;;;;;;;57.10;28.50;;;18.50;1.00;;;;;;5051736;28;20542;-82
2021/03/24 11:20:35;;;;;;;58.13;27.20;;;18.60;1.00;;;;;;5052926;28;20491;-82
2021/03/24 11:23:08;;;;;;;57.83;28.67;;;18.70;1.00;;;;;;5032437;28;20448;-85
2021/03/24 11:28:31;;;;;;;59.33;28.70;;;18.10;1.00;;;;;;5050931;28;20448;-85
2021/03/24 11:31:08;;;;;;;61.40;29.10;;;18.80;1.00;;;;;;5049856;28;20457;-85
2021/03/24 11:33:43;;;;;;;58.80;29.50;;;19.20;1.00;;;;;;5051674;28;20913;-85
2021/03/24 11:36:25;;;;;;;61.00;30.80;;;19.80;1.00;;;;;;5052843;28;20537;-83
2021/03/24 11:39:10;;;;;;;58.77;29.57;;;19.70;1.00;;;;;;5051835;28;20459;-84
2021/03/24 11:41:43;;;;;;;58.40;29.33;;;20.70;1.00;;;;;;5052696;28;20451;-84
2021/03/24 11:44:18;;;;;;;59.23;29.57;;;19.70;1.00;;;;;;5052504;28;20973;-83
2021/03/24 11:47:00;;;;;;;58.67;28.20;;;19.70;1.00;;;;;;5065657;28;20480;-82
2021/03/24 11:49:49;;;;;;;65.50;30.43;;;19.30;1.00;;;;;;5072721;28;20446;-83
2021/03/24 11:52:43;;;;;;;61.27;27.73;;;20.10;1.00;;;;;;5072574;28;20482;-84
2021/03/24 11:55:49;;;;;;;57.40;29.90;;;19.30;1.00;;;;;;5063794;28;20462;-84
2021/03/24 11:58:45;;;;;;;62.00;29.13;;;19.60;1.00;;;;;;5052435;28;20825;-83
2021/03/24 12:01:36;;;;;;;58.13;29.43;;;19.40;1.00;;;;;;5043953;28;20482;-82
2021/03/24 12:04:24;;;;;;;57.07;27.07;;;18.90;1.00;;;;;;5049695;28;20540;-83
2021/03/24 12:07:04;;;;;;;64.20;27.30;;;19.20;1.00;;;;;;5051421;28;20451;-83
2021/03/24 12:09:44;;;;;;;64.63;32.30;;;18.90;1.00;;;;;;5051466;28;20451;-83
2021/03/24 12:22:09;;;;;;;58.63;29.50;;;20.80;1.00;;;;;;4914552;28;20454;-84
2021/03/24 12:24:54;;;;;;;55.60;28.33;;;21.40;1.00;;;;;;5054649;28;20482;-84
2021/03/24 12:31:04;;;;;;;55.63;28.33;;;22.00;1.00;;;;;;5053103;28;20474;-84
2021/03/24 12:33:40;;;;;;;59.07;30.10;;;22.50;1.00;;;;;;5054803;28;20485;-84
2021/03/24 12:39:51;;;;;;;;;;;;;;;;;;;;;
2021/03/24 12:42:36;;;;;;;66.43;29.10;;;23.00;1.00;;;;;;5055610;28;20451;-85
2021/03/24 12:45:32;;;;;;;66.13;28.80;;;22.90;1.00;;;;;;5055614;28;20509;-84
2021/03/24 12:48:14;;;;;;;61.43;27.83;;;23.10;1.00;;;;;;5048252;28;20816;-84
2021/03/24 12:51:15;;;;;;;63.90;28.50;;;22.70;1.00;;;;;;5055661;28;20951;-83
2021/03/24 12:54:29;;;;;;;;;;;;;;;;;;;;;
2021/03/24 13:00:57;;;;;;;54.90;26.13;;;21.50;1.00;;;;;;5047790;28;20446;-82
2021/03/24 13:04:16;;;;;;;56.30;26.00;;;21.30;1.00;;;;;;5054069;28;20489;-84
2021/03/24 13:07:02;;;;;;;57.77;26.43;;;22.00;1.00;;;;;;5054951;28;20546;-83
2021/03/24 13:09:52;;;;;;;;;;;;;;;;;;;;;
2021/03/24 13:12:47;;;;;;;60.33;26.30;;;23.40;1.00;;;;;;5054745;28;20534;-81
2021/03/24 13:54:31;;;;;;;41.33;18.77;;;21.40;1.00;;;;;;4851790;29;20458;-82
2021/03/24 13:57:41;;;;;;;;;;;;;;;;;;;;;
2021/03/24 14:00:56;;;;;;;40.47;17.37;;;21.20;1.00;;;;;;5054294;28;20451;-84
2021/03/24 14:19:34;;;;;;;40.37;18.23;;;22.00;1.00;;;;;;5047370;28;20996;-83
2021/03/24 14:23:06;;;;;;;;;;;;;;;;;;;;;
2021/03/24 14:25:38;;;;;;;43.27;17.60;;;21.90;1.00;;;;;;4966029;28;20467;-84
2021/03/24 14:35:12;;;;;;;45.30;20.20;;;22.00;1.00;;;;;;5024501;28;20879;-85
2021/03/24 14:48:02;;;;;;;45.47;20.20;;;20.40;1.00;;;;;;4919342;28;20443;-82
2021/03/24 14:50:41;;;;;;;41.63;18.77;;;21.00;1.00;;;;;;5042194;28;20537;-82
2021/03/24 14:53:39;;;;;;;45.90;19.50;;;21.30;1.00;;;;;;5053037;28;20466;-82
2021/03/24 14:56:29;;;;;;;42.20;18.70;;;21.50;1.00;;;;;;5053416;28;20495;-81
2021/03/24 14:59:30;;;;;;;48.30;22.50;;;21.40;1.00;;;;;;5052913;28;20447;-83
2021/03/24 15:02:41;;;;;;;50.03;21.20;;;20.50;1.00;;;;;;5052041;28;20471;-82
2021/03/24 15:23:07;;;;;;;49.30;24.73;;;21.60;1.00;;;;;;4870684;29;20482;-86
2021/03/24 15:36:06;;;;;;;;;;;;;;;;;;;;;
2021/03/24 15:39:04;;;;;;;52.20;23.90;;;19.40;1.00;;;;;;4923603;28;20538;-84
2021/03/24 15:42:33;;;;;;;47.50;23.63;;;19.00;1.00;;;;;;4989013;28;20502;-84
2021/03/24 15:45:43;;;;;;;52.90;24.87;;;19.20;1.00;;;;;;4988971;28;20510;-83
2021/03/24 15:49:07;;;;;;;;;;;;;;;;;;;;;
2021/03/24 15:55:16;;;;;;;55.37;22.80;;;19.50;1.00;;;;;;4888325;29;20518;-83
2021/03/24 16:04:48;;;;;;;44.97;21.47;;;18.60;1.00;;;;;;5018890;28;20488;-83
2021/03/24 16:07:33;;;;;;;45.77;21.57;;;18.90;1.00;;;;;;5046662;28;20462;-82
2021/03/24 16:17:20;;;;;;;45.77;20.00;;;18.60;1.00;;;;;;5035386;28;21427;-84
2021/03/24 16:20:25;;;;;;;;;;;;;;;;;;;;;